sensor_id;sensor_type;location;lat;lon;timestamp;pressure;altitude;pressure_sealevel;temperature;humidity
6833;BME280;3454;42.654;23.378;2023-09-18T00:00:51;64823.75;;;17.60;100.00
6833;BME280;3454;42.654;23.378;2023-09-18T00:03:21;64830.78;;;17.72;100.00
6833;BME280;3454;42.654;23.378;2023-09-18T00:05:53;64838.06;;;17.74;100.00
6833;BME280;3454;42.654;23.378;2023-09-18T00:08:19;64831.66;;;17.70;100.00
6833;BME280;3454;42.654;23.378;2023-09-18T00:10:55;64836.41;;;17.72;100.00
6833;BME280;3454;42.654;23.378;2023-09-18T00:13:22;64827.81;;;17.67;100.00
6833;BME280;3454;42.654;23.378;2023-09-18T00:15:47;64831.88;;;17.73;100.00
6833;BME280;3454;42.654;23.378;2023-09-18T00:18:15;64830.56;;;17.69;100.00
6833;BME280;3454;42.654;23.378;2023-09-18T00:20:42;64835.53;;;17.74;100.00
6833;BME280;3454;42.654;23.378;2023-09-18T00:23:08;64849.66;;;17.84;100.00
6833;BME280;3454;42.654;23.378;2023-09-18T00:25:34;64858.13;;;17.94;100.00
6833;BME280;3454;42.654;23.378;2023-09-18T00:28:00;64828.38;;;17.67;100.00
6833;BME280;3454;42.654;23.378;2023-09-18T00:30:26;64837.72;;;17.76;100.00
6833;BME280;3454;42.654;23.378;2023-09-18T00:32:51;64839.19;;;17.75;100.00
6833;BME280;3454;42.654;23.378;2023-09-18T00:35:17;64838.63;;;17.74;100.00
6833;BME280;3454;42.654;23.378;2023-09-18T00:37:43;64842.69;;;17.80;100.00
6833;BME280;3454;42.654;23.378;2023-09-18T00:40:09;64837.38;;;17.78;100.00
6833;BME280;3454;42.654;23.378;2023-09-18T00:42:36;64847.66;;;17.85;100.00
6833;BME280;3454;42.654;23.378;2023-09-18T00:45:02;64839.41;;;17.77;100.00
6833;BME280;3454;42.654;23.378;2023-09-18T00:47:28;64846.88;;;17.82;100.00
6833;BME280;3454;42.654;23.378;2023-09-18T00:49:54;64854.06;;;17.88;100.00
6833;BME280;3454;42.654;23.378;2023-09-18T00:52:22;64846.53;;;17.84;100.00
6833;BME280;3454;42.654;23.378;2023-09-18T00:54:50;64841.03;;;17.79;100.00
6833;BME280;3454;42.654;23.378;2023-09-18T00:57:16;64846.34;;;17.81;100.00
6833;BME280;3454;42.654;23.378;2023-09-18T00:59:43;64850.75;;;17.85;100.00
6833;BME280;3454;42.654;23.378;2023-09-18T01:02:09;64846.19;;;17.86;100.00
6833;BME280;3454;42.654;23.378;2023-09-18T01:04:37;64855.03;;;17.94;100.00
6833;BME280;3454;42.654;23.378;2023-09-18T01:07:02;64858.13;;;17.94;100.00
6833;BME280;3454;42.654;23.378;2023-09-18T01:09:33;64869.72;;;18.05;100.00
6833;BME280;3454;42.654;23.378;2023-09-18T01:12:08;64856.25;;;17.90;100.00
6833;BME280;3454;42.654;23.378;2023-09-18T01:14:42;64861.44;;;17.97;100.00
6833;BME280;3454;42.654;23.378;2023-09-18T01:17:10;64868.06;;;18.03;100.00
6833;BME280;3454;42.654;23.378;2023-09-18T01:19:37;64862.53;;;17.98;100.00
6833;BME280;3454;42.654;23.378;2023-09-18T01:22:07;64846.34;;;17.81;100.00
6833;BME280;3454;42.654;23.378;2023-09-18T01:24:34;64848.41;;;17.88;100.00
6833;BME280;3454;42.654;23.378;2023-09-18T01:27:02;64844.91;;;17.82;100.00
6833;BME280;3454;42.654;23.378;2023-09-18T01:29:31;64863.09;;;17.99;100.00
6833;BME280;3454;42.654;23.378;2023-09-18T01:31:57;64856.81;;;17.91;100.00
6833;BME280;3454;42.654;23.378;2023-09-18T01:34:28;64853.72;;;17.90;100.00
6833;BME280;3454;42.654;23.378;2023-09-18T01:37:26;64852.97;;;17.87;100.00
6833;BME280;3454;42.654;23.378;2023-09-18T01:39:52;64855.91;;;17.92;100.00
6833;BME280;3454;42.654;23.378;2023-09-18T01:42:19;64850.94;;;17.88;100.00
6833;BME280;3454;42.654;23.378;2023-09-18T01:44:47;64850.41;;;17.87;100.00
6833;BME280;3454;42.654;23.378;2023-09-18T01:47:16;64861.44;;;17.97;100.00
6833;BME280;3454;42.654;23.378;2023-09-18T01:49:43;64854.63;;;17.89;100.00
6833;BME280;3454;42.654;23.378;2023-09-18T01:52:09;64862.75;;;18.01;100.00
6833;BME280;3454;42.654;23.378;2023-09-18T01:54:35;64859.78;;;17.96;100.00
6833;BME280;3454;42.654;23.378;2023-09-18T01:57:02;64854.28;;;17.91;100.00
6833;BME280;3454;42.654;23.378;2023-09-18T01:59:28;64848.56;;;17.83;100.00
6833;BME280;3454;42.654;23.378;2023-09-18T02:01:54;64850.75;;;17.85;100.00
6833;BME280;3454;42.654;23.378;2023-09-18T02:04:21;64854.81;;;17.91;100.00
6833;BME280;3454;42.654;23.378;2023-09-18T02:06:48;64840.50;;;17.78;100.00
6833;BME280;3454;42.654;23.378;2023-09-18T02:09:16;64853.72;;;17.90;100.00
6833;BME280;3454;42.654;23.378;2023-09-18T02:11:43;64846.75;;;17.86;100.00
6833;BME280;3454;42.654;23.378;2023-09-18T02:14:09;64855.38;;;17.92;100.00
6833;BME280;3454;42.654;23.378;2023-09-18T02:16:37;64860.88;;;17.97;100.00
6833;BME280;3454;42.654;23.378;2023-09-18T02:19:03;64852.63;;;17.89;100.00
6833;BME280;3454;42.654;23.378;2023-09-18T02:21:30;64859.78;;;17.96;100.00
6833;BME280;3454;42.654;23.378;2023-09-18T02:23:56;64858.47;;;17.92;100.00
6833;BME280;3454;42.654;23.378;2023-09-18T02:26:24;64873.03;;;18.08;100.00
6833;BME280;3454;42.654;23.378;2023-09-18T02:28:52;64864.19;;;18.00;100.00
6833;BME280;3454;42.654;23.378;2023-09-18T02:31:19;64847.88;;;17.87;100.00
6833;BME280;3454;42.654;23.378;2023-09-18T02:33:44;64860.69;;;17.94;100.00
6833;BME280;3454;42.654;23.378;2023-09-18T02:36:10;64841.25;;;17.81;100.00
6833;BME280;3454;42.654;23.378;2023-09-18T02:38:36;64850.94;;;17.88;100.00
6833;BME280;3454;42.654;23.378;2023-09-18T02:41:02;64834.44;;;17.73;100.00
6833;BME280;3454;42.654;23.378;2023-09-18T02:43:27;64833.31;;;17.72;100.00
6833;BME280;3454;42.654;23.378;2023-09-18T02:45:53;64832.22;;;17.71;100.00
6833;BME280;3454;42.654;23.378;2023-09-18T02:48:18;64837.94;;;17.78;100.00
6833;BME280;3454;42.654;23.378;2023-09-18T02:50:44;64830.91;;;17.67;100.00
6833;BME280;3454;42.654;23.378;2023-09-18T02:53:21;64812.94;;;17.53;100.00
6833;BME280;3454;42.654;23.378;2023-09-18T02:55:48;64816.03;;;17.53;100.00
6833;BME280;3454;42.654;23.378;2023-09-18T02:58:14;64817.88;;;17.57;100.00
6833;BME280;3454;42.654;23.378;2023-09-18T03:00:47;64817.69;;;17.55;100.00
6833;BME280;3454;42.654;23.378;2023-09-18T03:03:13;64808.53;;;17.49;100.00
6833;BME280;3454;42.654;23.378;2023-09-18T03:05:40;64795.47;;;17.39;100.00
6833;BME280;3454;42.654;23.378;2023-09-18T03:08:07;64801.34;;;17.42;100.00
6833;BME280;3454;42.654;23.378;2023-09-18T03:10:34;64800.03;;;17.39;100.00
6833;BME280;3454;42.654;23.378;2023-09-18T03:13:03;64808.53;;;17.49;100.00
6833;BME280;3454;42.654;23.378;2023-09-18T03:15:30;64793.97;;;17.33;100.00
6833;BME280;3454;42.654;23.378;2023-09-18T03:17:56;64788.69;;;17.31;100.00
6833;BME280;3454;42.654;23.378;2023-09-18T03:20:22;64856.25;;;17.90;100.00
6833;BME280;3454;42.654;23.378;2023-09-18T03:22:50;64852.06;;;17.89;100.00
6833;BME280;3454;42.654;23.378;2023-09-18T03:25:16;64830.38;;;17.67;100.00
6833;BME280;3454;42.654;23.378;2023-09-18T03:27:41;64817.34;;;17.57;100.00
6833;BME280;3454;42.654;23.378;2023-09-18T03:30:08;64806.09;;;17.44;100.00
6833;BME280;3454;42.654;23.378;2023-09-18T03:32:34;64809.28;;;17.52;100.00
6833;BME280;3454;42.654;23.378;2023-09-18T03:35:01;64820.44;;;17.57;100.00
6833;BME280;3454;42.654;23.378;2023-09-18T03:37:27;64814.38;;;17.52;100.00
6833;BME280;3454;42.654;23.378;2023-09-18T03:39:53;64812.72;;;17.50;100.00
6833;BME280;3454;42.654;23.378;2023-09-18T03:42:18;64823.63;;;17.65;100.00
6833;BME280;3454;42.654;23.378;2023-09-18T03:44:44;64836.63;;;17.75;100.00
6833;BME280;3454;42.654;23.378;2023-09-18T03:47:10;64826.69;;;17.66;100.00
6833;BME280;3454;42.654;23.378;2023-09-18T03:49:35;64795.81;;;17.37;100.00
6833;BME280;3454;42.654;23.378;2023-09-18T03:52:01;64805.00;;;17.43;100.00
6833;BME280;3454;42.654;23.378;2023-09-18T03:54:26;64789.56;;;17.29;100.00
6833;BME280;3454;42.654;23.378;2023-09-18T03:56:51;64779.31;;;17.22;100.00
6833;BME280;3454;42.654;23.378;2023-09-18T03:59:17;64791.41;;;17.33;100.00
6833;BME280;3454;42.654;23.378;2023-09-18T04:01:43;64800.44;;;17.44;100.00
6833;BME280;3454;42.654;23.378;2023-09-18T04:04:08;64789.22;;;17.31;100.00
6833;BME280;3454;42.654;23.378;2023-09-18T04:06:43;64769.38;;;17.13;100.00
6833;BME280;3454;42.654;23.378;2023-09-18T04:09:09;64763.34;;;17.08;100.00
6833;BME280;3454;42.654;23.378;2023-09-18T04:11:35;64762.25;;;17.07;100.00
6833;BME280;3454;42.654;23.378;2023-09-18T04:14:01;64766.66;;;17.11;100.00
6833;BME280;3454;42.654;23.378;2023-09-18T04:16:29;64761.13;;;17.06;100.00
6833;BME280;3454;42.654;23.378;2023-09-18T04:19:01;64787.91;;;17.28;100.00
6833;BME280;3454;42.654;23.378;2023-09-18T04:21:27;64800.03;;;17.39;100.00
6833;BME280;3454;42.654;23.378;2023-09-18T04:23:55;64784.63;;;17.25;100.00
6833;BME280;3454;42.654;23.378;2023-09-18T04:26:23;64772.34;;;17.18;100.00
6833;BME280;3454;42.654;23.378;2023-09-18T04:28:49;64786.47;;;17.29;100.00
6833;BME280;3454;42.654;23.378;2023-09-18T04:31:16;64785.38;;;17.28;100.00
6833;BME280;3454;42.654;23.378;2023-09-18T04:33:44;64763.88;;;17.08;100.00
6833;BME280;3454;42.654;23.378;2023-09-18T04:36:10;64784.63;;;17.25;100.00
6833;BME280;3454;42.654;23.378;2023-09-18T04:38:36;64828.56;;;17.70;100.00
6833;BME280;3454;42.654;23.378;2023-09-18T04:41:01;64812.03;;;17.54;100.00
6833;BME280;3454;42.654;23.378;2023-09-18T04:43:27;64811.84;;;17.52;100.00
6833;BME280;3454;42.654;23.378;2023-09-18T04:45:56;64856.47;;;17.93;100.00
6833;BME280;3454;42.654;23.378;2023-09-18T04:48:22;64833.13;;;17.69;100.00
6833;BME280;3454;42.654;23.378;2023-09-18T04:50:49;64824.31;;;17.61;100.00
6833;BME280;3454;42.654;23.378;2023-09-18T04:53:17;64828.16;;;17.65;100.00
6833;BME280;3454;42.654;23.378;2023-09-18T04:55:45;64821.75;;;17.61;100.00
6833;BME280;3454;42.654;23.378;2023-09-18T04:58:16;64847.44;;;17.82;100.00
6833;BME280;3454;42.654;23.378;2023-09-18T05:00:44;64853.94;;;17.93;100.00
6833;BME280;3454;42.654;23.378;2023-09-18T05:03:10;64850.94;;;17.88;100.00
6833;BME280;3454;42.654;23.378;2023-09-18T05:05:36;64855.91;;;17.92;100.00
6833;BME280;3454;42.654;23.378;2023-09-18T05:08:05;64872.47;;;18.07;100.00
6833;BME280;3454;42.654;23.378;2023-09-18T05:10:37;64875.22;;;18.10;100.00
6833;BME280;3454;42.654;23.378;2023-09-18T05:13:04;64860.88;;;17.97;100.00
6833;BME280;3454;42.654;23.378;2023-09-18T05:15:31;64853.72;;;17.90;100.00
6833;BME280;3454;42.654;23.378;2023-09-18T05:17:59;64871.00;;;18.08;100.00
6833;BME280;3454;42.654;23.378;2023-09-18T05:20:30;64872.47;;;18.07;100.00
6833;BME280;3454;42.654;23.378;2023-09-18T05:22:57;64864.75;;;18.00;100.00
6833;BME280;3454;42.654;23.378;2023-09-18T05:25:25;64873.56;;;18.08;100.00
6833;BME280;3454;42.654;23.378;2023-09-18T05:27:52;64872.13;;;18.09;100.00
6833;BME280;3454;42.654;23.378;2023-09-18T05:30:28;64880.72;;;18.15;100.00
6833;BME280;3454;42.654;23.378;2023-09-18T05:32:56;64886.78;;;18.20;100.00
6833;BME280;3454;42.654;23.378;2023-09-18T05:35:21;64899.69;;;18.34;100.00
6833;BME280;3454;42.654;23.378;2023-09-18T05:37:49;64890.66;;;18.24;100.00
6833;BME280;3454;42.654;23.378;2023-09-18T05:40:16;64915.50;;;18.47;100.00
6833;BME280;3454;42.654;23.378;2023-09-18T05:42:43;64897.81;;;18.30;100.00
6833;BME280;3454;42.654;23.378;2023-09-18T05:45:13;64884.06;;;18.18;100.00
6833;BME280;3454;42.654;23.378;2023-09-18T05:47:39;64857.78;;;17.96;100.00
6833;BME280;3454;42.654;23.378;2023-09-18T05:50:06;64857.78;;;17.96;100.00
6833;BME280;3454;42.654;23.378;2023-09-18T05:52:33;64874.31;;;18.11;100.00
6833;BME280;3454;42.654;23.378;2023-09-18T05:54:59;64885.16;;;18.19;100.00
6833;BME280;3454;42.654;23.378;2023-09-18T05:57:26;64876.88;;;18.11;100.00
6833;BME280;3454;42.654;23.378;2023-09-18T05:59:56;64892.53;;;18.28;100.00
6833;BME280;3454;42.654;23.378;2023-09-18T06:02:22;64893.97;;;18.27;100.00
6833;BME280;3454;42.654;23.378;2023-09-18T06:04:49;64918.59;;;18.47;100.00
6833;BME280;3454;42.654;23.378;2023-09-18T06:07:21;64899.16;;;18.34;100.00
6833;BME280;3454;42.654;23.378;2023-09-18T06:09:48;64915.91;;;18.52;100.00
6833;BME280;3454;42.654;23.378;2023-09-18T06:12:13;64935.34;;;18.65;100.00
6833;BME280;3454;42.654;23.378;2023-09-18T06:14:40;64913.50;;;18.47;100.00
6833;BME280;3454;42.654;23.378;2023-09-18T06:17:06;64932.78;;;18.65;100.00
6833;BME280;3454;42.654;23.378;2023-09-18T06:19:32;64945.84;;;18.74;100.00
6833;BME280;3454;42.654;23.378;2023-09-18T06:21:58;64946.59;;;18.77;100.00
6833;BME280;3454;42.654;23.378;2023-09-18T06:24:23;64946.38;;;18.75;100.00
6833;BME280;3454;42.654;23.378;2023-09-18T06:26:49;64936.81;;;18.64;100.00
6833;BME280;3454;42.654;23.378;2023-09-18T06:29:16;64946.94;;;18.75;100.00
6833;BME280;3454;42.654;23.378;2023-09-18T06:31:42;64960.72;;;18.88;100.00
6833;BME280;3454;42.654;23.378;2023-09-18T06:34:07;64948.22;;;18.79;100.00
6833;BME280;3454;42.654;23.378;2023-09-18T06:36:33;64962.59;;;18.92;100.00
6833;BME280;3454;42.654;23.378;2023-09-18T06:38:58;64958.53;;;18.86;100.00
6833;BME280;3454;42.654;23.378;2023-09-18T06:41:24;64968.09;;;18.97;100.00
6833;BME280;3454;42.654;23.378;2023-09-18T06:43:49;64979.47;;;19.05;100.00
6833;BME280;3454;42.654;23.378;2023-09-18T06:46:15;64964.78;;;18.94;100.00
6833;BME280;3454;42.654;23.378;2023-09-18T06:48:42;64994.94;;;19.19;100.00
6833;BME280;3454;42.654;23.378;2023-09-18T06:51:11;65001.22;;;19.27;100.00
6833;BME280;3454;42.654;23.378;2023-09-18T06:53:37;65003.41;;;19.29;100.00
6833;BME280;3454;42.654;23.378;2023-09-18T06:56:03;65009.28;;;19.32;100.00
6833;BME280;3454;42.654;23.378;2023-09-18T06:58:30;65004.53;;;19.30;100.00
6833;BME280;3454;42.654;23.378;2023-09-18T07:00:56;64987.22;;;19.12;100.00
6833;BME280;3454;42.654;23.378;2023-09-18T07:03:23;65013.72;;;19.36;100.00
6833;BME280;3454;42.654;23.378;2023-09-18T07:05:49;65044.28;;;19.66;100.00
6833;BME280;3454;42.654;23.378;2023-09-18T07:08:16;65034.38;;;19.57;100.00
6833;BME280;3454;42.654;23.378;2023-09-18T07:10:45;65055.69;;;19.74;100.00
6833;BME280;3454;42.654;23.378;2023-09-18T07:13:11;65073.00;;;19.92;100.00
6833;BME280;3454;42.654;23.378;2023-09-18T07:15:37;65076.69;;;19.93;100.00
6833;BME280;3454;42.654;23.378;2023-09-18T07:18:03;65089.94;;;20.05;100.00
6833;BME280;3454;42.654;23.378;2023-09-18T07:20:29;65082.97;;;20.01;100.00
6833;BME280;3454;42.654;23.378;2023-09-18T07:22:55;65091.03;;;20.06;100.00
6833;BME280;3454;42.654;23.378;2023-09-18T07:25:22;65101.72;;;20.19;100.00
6833;BME280;3454;42.654;23.378;2023-09-18T07:27:48;65109.28;;;20.23;100.00
6833;BME280;3454;42.654;23.378;2023-09-18T07:30:14;65100.63;;;20.18;100.00
6833;BME280;3454;42.654;23.378;2023-09-18T07:32:46;65105.41;;;20.20;100.00
6833;BME280;3454;42.654;23.378;2023-09-18T07:35:12;65095.66;;;20.13;100.00
6833;BME280;3454;42.654;23.378;2023-09-18T07:37:41;65109.50;;;20.26;100.00
6833;BME280;3454;42.654;23.378;2023-09-18T07:40:10;65119.22;;;20.32;100.00
6833;BME280;3454;42.654;23.378;2023-09-18T07:42:35;65133.44;;;20.50;100.00
6833;BME280;3454;42.654;23.378;2023-09-18T07:45:02;65144.28;;;20.57;100.00
6833;BME280;3454;42.654;23.378;2023-09-18T07:47:27;65171.16;;;20.79;100.00
6833;BME280;3454;42.654;23.378;2023-09-18T07:49:53;65149.63;;;20.60;100.00
6833;BME280;3454;42.654;23.378;2023-09-18T07:52:19;65171.72;;;20.80;99.43
6833;BME280;3454;42.654;23.378;2023-09-18T07:54:45;65169.16;;;20.80;100.00
6833;BME280;3454;42.654;23.378;2023-09-18T07:57:11;65189.97;;;20.97;100.00
6833;BME280;3454;42.654;23.378;2023-09-18T07:59:37;65182.44;;;20.92;99.67
6833;BME280;3454;42.654;23.378;2023-09-18T08:02:04;65155.13;;;20.65;99.54
6833;BME280;3454;42.654;23.378;2023-09-18T08:04:33;65160.88;;;20.72;100.00
6833;BME280;3454;42.654;23.378;2023-09-18T08:06:59;65166.59;;;20.80;99.58
6833;BME280;3454;42.654;23.378;2023-09-18T08:09:25;65177.66;;;20.90;100.00
6833;BME280;3454;42.654;23.378;2023-09-18T08:11:51;65202.34;;;21.10;97.85
6833;BME280;3454;42.654;23.378;2023-09-18T08:14:21;65220.03;;;21.26;97.41
6833;BME280;3454;42.654;23.378;2023-09-18T08:16:47;65223.34;;;21.29;100.00
6833;BME280;3454;42.654;23.378;2023-09-18T08:19:16;65239.94;;;21.44;99.08
6833;BME280;3454;42.654;23.378;2023-09-18T08:21:45;65260.78;;;21.61;93.34
6833;BME280;3454;42.654;23.378;2023-09-18T08:24:10;65241.59;;;21.46;95.81
6833;BME280;3454;42.654;23.378;2023-09-18T08:26:35;65278.66;;;21.80;94.33
6833;BME280;3454;42.654;23.378;2023-09-18T08:29:02;65293.06;;;21.93;94.13
6833;BME280;3454;42.654;23.378;2023-09-18T08:31:27;65314.66;;;22.12;93.21
6833;BME280;3454;42.654;23.378;2023-09-18T08:33:53;65348.41;;;22.43;93.10
6833;BME280;3454;42.654;23.378;2023-09-18T08:36:18;65358.38;;;22.52;89.61
6833;BME280;3454;42.654;23.378;2023-09-18T08:38:43;65388.63;;;22.77;85.77
6833;BME280;3454;42.654;23.378;2023-09-18T08:41:12;65381.63;;;22.73;87.59
6833;BME280;3454;42.654;23.378;2023-09-18T08:43:41;65418.75;;;23.07;85.94
6833;BME280;3454;42.654;23.378;2023-09-18T08:46:09;65419.69;;;23.12;82.42
6833;BME280;3454;42.654;23.378;2023-09-18T08:48:34;65448.47;;;23.31;82.55
6833;BME280;3454;42.654;23.378;2023-09-18T08:51:03;65461.41;;;23.46;81.15
6833;BME280;3454;42.654;23.378;2023-09-18T08:53:34;65499.66;;;23.80;77.47
6833;BME280;3454;42.654;23.378;2023-09-18T08:56:04;65511.50;;;23.93;74.86
6833;BME280;3454;42.654;23.378;2023-09-18T08:58:34;65525.91;;;24.06;78.75
6833;BME280;3454;42.654;23.378;2023-09-18T09:01:03;65571.75;;;24.46;77.66
6833;BME280;3454;42.654;23.378;2023-09-18T09:03:31;65581.91;;;24.57;75.71
6833;BME280;3454;42.654;23.378;2023-09-18T09:05:59;65617.44;;;24.89;70.79
6833;BME280;3454;42.654;23.378;2023-09-18T09:08:28;65609.13;;;24.82;70.18
6833;BME280;3454;42.654;23.378;2023-09-18T09:10:53;65645.72;;;25.15;69.76
6833;BME280;3454;42.654;23.378;2023-09-18T09:13:19;65661.09;;;25.27;69.80
6833;BME280;3454;42.654;23.378;2023-09-18T09:15:53;65649.63;;;25.19;68.31
6833;BME280;3454;42.654;23.378;2023-09-18T09:18:21;65648.13;;;25.20;68.94
6833;BME280;3454;42.654;23.378;2023-09-18T09:21:01;65618.56;;;24.90;65.21
6833;BME280;3454;42.654;23.378;2023-09-18T09:23:49;65550.09;;;24.26;71.96
6833;BME280;3454;42.654;23.378;2023-09-18T09:26:19;65525.34;;;24.06;73.39
6833;BME280;3454;42.654;23.378;2023-09-18T09:28:46;65520.16;;;23.99;73.49
6833;BME280;3454;42.654;23.378;2023-09-18T09:31:12;65530.16;;;24.08;72.01
6833;BME280;3454;42.654;23.378;2023-09-18T09:33:51;65618.91;;;24.88;66.53
6833;BME280;3454;42.654;23.378;2023-09-18T09:36:24;65687.03;;;25.55;67.65
6833;BME280;3454;42.654;23.378;2023-09-18T09:38:55;65747.69;;;26.05;63.65
6833;BME280;3454;42.654;23.378;2023-09-18T09:41:23;65751.03;;;26.08;59.80
6833;BME280;3454;42.654;23.378;2023-09-18T09:43:50;65726.22;;;25.88;61.16
6833;BME280;3454;42.654;23.378;2023-09-18T09:46:18;65676.63;;;25.41;62.25
6833;BME280;3454;42.654;23.378;2023-09-18T09:49:03;65697.72;;;25.60;59.86
6833;BME280;3454;42.654;23.378;2023-09-18T09:51:30;65697.16;;;25.59;58.82
6833;BME280;3454;42.654;23.378;2023-09-18T09:53:57;65746.78;;;26.07;58.98
6833;BME280;3454;42.654;23.378;2023-09-18T09:59:06;65774.38;;;26.29;55.88
6833;BME280;3454;42.654;23.378;2023-09-18T10:01:35;65737.88;;;25.99;56.99
6833;BME280;3454;42.654;23.378;2023-09-18T10:04:05;65692.91;;;25.58;58.70
6833;BME280;3454;42.654;23.378;2023-09-18T10:06:34;65669.41;;;25.34;61.65
6833;BME280;3454;42.654;23.378;2023-09-18T10:09:04;65705.50;;;25.67;62.21
6833;BME280;3454;42.654;23.378;2023-09-18T10:11:34;65725.13;;;25.87;59.70
6833;BME280;3454;42.654;23.378;2023-09-18T10:14:12;65684.41;;;25.48;60.66
6833;BME280;3454;42.654;23.378;2023-09-18T10:16:53;65644.06;;;25.14;63.02
6833;BME280;3454;42.654;23.378;2023-09-18T10:19:45;65674.41;;;25.39;60.02
6833;BME280;3454;42.654;23.378;2023-09-18T10:22:36;65731.22;;;25.93;57.58
6833;BME280;3454;42.654;23.378;2023-09-18T10:25:30;65794.94;;;26.48;53.34
6833;BME280;3454;42.654;23.378;2023-09-18T10:27:57;65788.44;;;26.44;54.30
6833;BME280;3454;42.654;23.378;2023-09-18T10:30:29;65673.69;;;25.43;56.64
6833;BME280;3454;42.654;23.378;2023-09-18T10:32:57;65707.34;;;25.71;56.09
6833;BME280;3454;42.654;23.378;2023-09-18T10:35:25;65792.88;;;26.48;55.20
6833;BME280;3454;42.654;23.378;2023-09-18T10:37:51;65871.81;;;27.20;52.39
6833;BME280;3454;42.654;23.378;2023-09-18T10:40:21;65864.03;;;27.13;51.29
6833;BME280;3454;42.654;23.378;2023-09-18T10:42:50;65864.41;;;27.11;50.39
6833;BME280;3454;42.654;23.378;2023-09-18T10:45:18;65858.84;;;27.06;50.52
6833;BME280;3454;42.654;23.378;2023-09-18T10:47:46;65847.38;;;26.98;50.01
6833;BME280;3454;42.654;23.378;2023-09-18T10:50:22;65878.47;;;27.26;51.87
6833;BME280;3454;42.654;23.378;2023-09-18T10:52:49;65905.56;;;27.48;50.26
6833;BME280;3454;42.654;23.378;2023-09-18T10:55:15;65938.00;;;27.80;49.46
6833;BME280;3454;42.654;23.378;2023-09-18T10:57:55;65869.78;;;27.20;51.57
6833;BME280;3454;42.654;23.378;2023-09-18T11:00:25;65909.63;;;27.54;50.02
6833;BME280;3454;42.654;23.378;2023-09-18T11:02:53;65957.66;;;28.00;50.73
6833;BME280;3454;42.654;23.378;2023-09-18T11:05:34;65959.72;;;27.99;47.80
6833;BME280;3454;42.654;23.378;2023-09-18T11:08:29;65998.09;;;28.34;48.17
6833;BME280;3454;42.654;23.378;2023-09-18T11:11:00;66013.84;;;28.51;46.99
6833;BME280;3454;42.654;23.378;2023-09-18T11:13:35;66009.59;;;28.42;46.12
6833;BME280;3454;42.654;23.378;2023-09-18T11:16:15;66045.59;;;28.79;46.48
6833;BME280;3454;42.654;23.378;2023-09-18T11:18:46;66030.94;;;28.64;46.08
6833;BME280;3454;42.654;23.378;2023-09-18T11:21:15;65945.59;;;27.84;47.55
6833;BME280;3454;42.654;23.378;2023-09-18T11:23:43;65986.94;;;28.24;47.23
6833;BME280;3454;42.654;23.378;2023-09-18T11:26:10;65998.09;;;28.34;47.01
6833;BME280;3454;42.654;23.378;2023-09-18T11:28:38;66031.13;;;28.66;46.72
6833;BME280;3454;42.654;23.378;2023-09-18T11:31:05;66029.28;;;28.62;46.15
6833;BME280;3454;42.654;23.378;2023-09-18T11:33:35;65964.16;;;28.03;47.89
6833;BME280;3454;42.654;23.378;2023-09-18T11:38:54;66030.94;;;28.64;45.65
6833;BME280;3454;42.654;23.378;2023-09-18T11:41:28;66069.34;;;28.98;45.12
6833;BME280;3454;42.654;23.378;2023-09-18T11:46:38;66067.66;;;28.97;44.71
6833;BME280;3454;42.654;23.378;2023-09-18T11:49:13;66062.84;;;28.95;44.81
6833;BME280;3454;42.654;23.378;2023-09-18T11:51:38;66078.44;;;29.09;42.59
6833;BME280;3454;42.654;23.378;2023-09-18T11:54:05;66077.13;;;29.05;43.96
6833;BME280;3454;42.654;23.378;2023-09-18T11:56:35;66031.50;;;28.64;44.60
6833;BME280;3454;42.654;23.378;2023-09-18T11:59:00;66039.84;;;28.72;44.71
6833;BME280;3454;42.654;23.378;2023-09-18T12:01:30;66008.28;;;28.46;44.90
6833;BME280;3454;42.654;23.378;2023-09-18T12:04:01;65998.09;;;28.34;45.93
6833;BME280;3454;42.654;23.378;2023-09-18T12:06:27;66040.94;;;28.73;44.69
6833;BME280;3454;42.654;23.378;2023-09-18T12:08:53;66022.03;;;28.56;44.37
6833;BME280;3454;42.654;23.378;2023-09-18T12:11:21;66094.25;;;29.19;44.07
6833;BME280;3454;42.654;23.378;2023-09-18T12:13:51;66115.94;;;29.38;43.60
6833;BME280;3454;42.654;23.378;2023-09-18T12:16:17;66073.81;;;29.02;44.65
6833;BME280;3454;42.654;23.378;2023-09-18T12:18:48;66101.09;;;29.27;45.92
6833;BME280;3454;42.654;23.378;2023-09-18T12:21:16;66095.16;;;29.24;44.95
6833;BME280;3454;42.654;23.378;2023-09-18T12:23:43;66060.44;;;28.90;45.35
6833;BME280;3454;42.654;23.378;2023-09-18T12:26:14;66052.28;;;28.85;45.41
6833;BME280;3454;42.654;23.378;2023-09-18T12:28:43;66103.31;;;29.29;46.53
6833;BME280;3454;42.654;23.378;2023-09-18T12:31:14;66078.44;;;29.09;45.23
6833;BME280;3454;42.654;23.378;2023-09-18T12:33:42;66002.00;;;28.38;46.34
6833;BME280;3454;42.654;23.378;2023-09-18T12:36:09;65935.97;;;27.80;47.94
6833;BME280;3454;42.654;23.378;2023-09-18T12:38:37;65900.75;;;27.46;48.51
6833;BME280;3454;42.654;23.378;2023-09-18T12:41:04;65937.81;;;27.77;47.93
6833;BME280;3454;42.654;23.378;2023-09-18T12:43:39;65982.50;;;28.20;48.46
6833;BME280;3454;42.654;23.378;2023-09-18T12:46:07;66008.66;;;28.44;48.28
6833;BME280;3454;42.654;23.378;2023-09-18T12:48:37;66051.91;;;28.80;46.57
6833;BME280;3454;42.654;23.378;2023-09-18T12:51:06;66030.56;;;28.66;46.46
6833;BME280;3454;42.654;23.378;2023-09-18T12:53:33;66037.81;;;28.72;45.22
6833;BME280;3454;42.654;23.378;2023-09-18T12:56:13;66023.50;;;28.55;45.11
6833;BME280;3454;42.654;23.378;2023-09-18T12:58:40;65957.84;;;27.95;45.56
6833;BME280;3454;42.654;23.378;2023-09-18T13:01:07;65948.56;;;27.89;46.57
6833;BME280;3454;42.654;23.378;2023-09-18T13:03:44;66004.78;;;28.40;46.50
6833;BME280;3454;42.654;23.378;2023-09-18T13:06:11;65989.75;;;28.27;46.67
6833;BME280;3454;42.654;23.378;2023-09-18T13:08:39;65954.91;;;27.97;47.44
6833;BME280;3454;42.654;23.378;2023-09-18T13:11:05;65976.59;;;28.17;46.69
6833;BME280;3454;42.654;23.378;2023-09-18T13:13:32;66021.47;;;28.55;46.96
6833;BME280;3454;42.654;23.378;2023-09-18T13:15:59;66068.22;;;28.97;46.00
6833;BME280;3454;42.654;23.378;2023-09-18T13:18:27;66037.63;;;28.70;45.29